sensor_id;sensor_type;location;lat;lon;timestamp;pressure;altitude;pressure_sealevel;temperature;humidity
60479;BME280;46321;48.398;11.754;2023-04-01T00:01:48;95295.81;;;7.52;68.77
60479;BME280;46321;48.398;11.754;2023-04-01T00:04:13;95301.25;;;7.51;69.01
60479;BME280;46321;48.398;11.754;2023-04-01T00:06:39;95311.16;;;7.49;69.20
60479;BME280;46321;48.398;11.754;2023-04-01T00:09:04;95294.09;;;7.44;69.21
60479;BME280;46321;48.398;11.754;2023-04-01T00:11:30;95316.25;;;7.35;69.58
60479;BME280;46321;48.398;11.754;2023-04-01T00:13:55;95308.91;;;7.30;70.06
60479;BME280;46321;48.398;11.754;2023-04-01T00:16:21;95299.03;;;7.32;69.83
60479;BME280;46321;48.398;11.754;2023-04-01T00:18:47;95312.44;;;7.38;69.39
60479;BME280;46321;48.398;11.754;2023-04-01T00:21:12;95305.91;;;7.33;69.55
60479;BME280;46321;48.398;11.754;2023-04-01T00:23:38;95309.38;;;7.34;69.72
60479;BME280;46321;48.398;11.754;2023-04-01T00:26:03;95311.44;;;7.24;70.06
60479;BME280;46321;48.398;11.754;2023-04-01T00:28:29;95313.00;;;7.18;70.07
60479;BME280;46321;48.398;11.754;2023-04-01T00:30:54;95309.47;;;7.10;70.33
60479;BME280;46321;48.398;11.754;2023-04-01T00:33:20;95323.91;;;7.15;70.28
60479;BME280;46321;48.398;11.754;2023-04-01T00:35:45;95313.56;;;7.13;70.32
60479;BME280;46321;48.398;11.754;2023-04-01T00:38:11;95316.19;;;7.13;70.23
60479;BME280;46321;48.398;11.754;2023-04-01T00:40:39;95311.13;;;6.96;71.00
60479;BME280;46321;48.398;11.754;2023-04-01T00:43:18;95322.44;;;6.97;70.83
60479;BME280;46321;48.398;11.754;2023-04-01T00:45:46;95316.47;;;7.03;70.86
60479;BME280;46321;48.398;11.754;2023-04-01T00:48:16;95312.28;;;7.09;70.83
60479;BME280;46321;48.398;11.754;2023-04-01T00:50:45;95319.47;;;7.15;70.47
60479;BME280;46321;48.398;11.754;2023-04-01T00:53:14;95318.38;;;7.09;70.93
60479;BME280;46321;48.398;11.754;2023-04-01T00:55:46;95323.25;;;7.13;70.72
60479;BME280;46321;48.398;11.754;2023-04-01T00:58:17;95319.47;;;7.15;70.69
60479;BME280;46321;48.398;11.754;2023-04-01T01:00:45;95312.03;;;7.19;71.18
60479;BME280;46321;48.398;11.754;2023-04-01T01:03:11;95317.94;;;7.21;71.27
60479;BME280;46321;48.398;11.754;2023-04-01T01:05:56;95310.03;;;7.21;71.23
60479;BME280;46321;48.398;11.754;2023-04-01T01:11:07;95302.13;;;7.21;70.95
60479;BME280;46321;48.398;11.754;2023-04-01T01:13:36;95296.88;;;7.21;71.08
60479;BME280;46321;48.398;11.754;2023-04-01T01:16:10;95299.03;;;7.17;71.19
60479;BME280;46321;48.398;11.754;2023-04-01T01:24:23;95304.59;;;7.07;71.46
60479;BME280;46321;48.398;11.754;2023-04-01T01:26:59;95290.50;;;7.15;71.23
60479;BME280;46321;48.398;11.754;2023-04-01T01:35:22;95295.59;;;7.17;71.08
60479;BME280;46321;48.398;11.754;2023-04-01T01:37:56;95290.88;;;7.12;70.78
60479;BME280;46321;48.398;11.754;2023-04-01T01:40:24;95287.06;;;7.15;70.89
60479;BME280;46321;48.398;11.754;2023-04-01T01:42:54;95290.69;;;7.14;71.02
60479;BME280;46321;48.398;11.754;2023-04-01T01:45:23;95288.53;;;7.02;71.18
60479;BME280;46321;48.398;11.754;2023-04-01T01:47:50;95296.13;;;6.97;71.48
60479;BME280;46321;48.398;11.754;2023-04-01T01:50:17;95286.53;;;7.04;71.47
60479;BME280;46321;48.398;11.754;2023-04-01T01:52:43;95291.16;;;7.02;71.49
60479;BME280;46321;48.398;11.754;2023-04-01T01:55:32;95282.44;;;7.02;71.47
60479;BME280;46321;48.398;11.754;2023-04-01T01:58:00;95283.25;;;7.02;71.46
60479;BME280;46321;48.398;11.754;2023-04-01T02:00:28;95284.00;;;6.96;71.83
60479;BME280;46321;48.398;11.754;2023-04-01T02:02:54;95278.81;;;7.03;71.61
60479;BME280;46321;48.398;11.754;2023-04-01T02:05:23;95276.84;;;6.90;71.96
60479;BME280;46321;48.398;11.754;2023-04-01T02:07:55;95276.94;;;6.96;72.14
60479;BME280;46321;48.398;11.754;2023-04-01T02:10:25;95267.38;;;6.95;72.20
60479;BME280;46321;48.398;11.754;2023-04-01T02:12:53;95279.19;;;6.84;72.29
60479;BME280;46321;48.398;11.754;2023-04-01T02:15:24;95271.28;;;6.84;72.16
60479;BME280;46321;48.398;11.754;2023-04-01T02:17:51;95274.75;;;6.85;72.51
60479;BME280;46321;48.398;11.754;2023-04-01T02:20:19;95277.47;;;6.92;72.26
60479;BME280;46321;48.398;11.754;2023-04-01T02:22:51;95291.88;;;6.96;71.95
60479;BME280;46321;48.398;11.754;2023-04-01T02:25:22;95280.16;;;6.83;72.28
60479;BME280;46321;48.398;11.754;2023-04-01T02:27:49;95291.59;;;6.91;72.00
60479;BME280;46321;48.398;11.754;2023-04-01T02:30:16;95286.00;;;6.94;71.87
60479;BME280;46321;48.398;11.754;2023-04-01T02:32:42;95295.88;;;6.92;72.08
60479;BME280;46321;48.398;11.754;2023-04-01T02:35:10;95300.59;;;6.81;72.06
60479;BME280;46321;48.398;11.754;2023-04-01T02:37:38;95298.88;;;6.73;72.49
60479;BME280;46321;48.398;11.754;2023-04-01T02:40:07;95297.41;;;6.71;72.63
60479;BME280;46321;48.398;11.754;2023-04-01T02:42:34;95299.94;;;6.79;72.48
60479;BME280;46321;48.398;11.754;2023-04-01T02:44:59;95297.13;;;6.66;72.73
60479;BME280;46321;48.398;11.754;2023-04-01T02:47:24;95303.84;;;6.68;72.63
60479;BME280;46321;48.398;11.754;2023-04-01T02:49:50;95315.91;;;6.78;72.14
60479;BME280;46321;48.398;11.754;2023-04-01T02:52:15;95305.66;;;6.68;72.73
60479;BME280;46321;48.398;11.754;2023-04-01T02:54:40;95310.75;;;6.69;72.73
60479;BME280;46321;48.398;11.754;2023-04-01T02:57:06;95314.84;;;6.72;72.65
60479;BME280;46321;48.398;11.754;2023-04-01T02:59:31;95315.09;;;6.77;72.64
60479;BME280;46321;48.398;11.754;2023-04-01T03:01:56;95312.13;;;6.80;72.45
60479;BME280;46321;48.398;11.754;2023-04-01T03:04:21;95316.19;;;6.83;72.09
60479;BME280;46321;48.398;11.754;2023-04-01T03:06:47;95316.91;;;6.76;72.58
60479;BME280;46321;48.398;11.754;2023-04-01T03:09:12;95314.47;;;6.75;72.66
60479;BME280;46321;48.398;11.754;2023-04-01T03:11:37;95321.44;;;6.68;72.60
60479;BME280;46321;48.398;11.754;2023-04-01T03:14:02;95322.34;;;6.75;72.47
60479;BME280;46321;48.398;11.754;2023-04-01T03:16:28;95324.88;;;6.68;72.94
60479;BME280;46321;48.398;11.754;2023-04-01T03:18:53;95328.44;;;6.75;72.61
60479;BME280;46321;48.398;11.754;2023-04-01T03:21:22;95324.88;;;6.68;72.46
60479;BME280;46321;48.398;11.754;2023-04-01T03:23:47;95318.97;;;6.66;73.03
60479;BME280;46321;48.398;11.754;2023-04-01T03:26:12;95323.41;;;6.66;72.80
60479;BME280;46321;48.398;11.754;2023-04-01T03:28:38;95332.78;;;6.68;72.61
60479;BME280;46321;48.398;11.754;2023-04-01T03:31:04;95337.69;;;6.71;72.70
60479;BME280;46321;48.398;11.754;2023-04-01T03:33:30;95334.69;;;6.74;72.64
60479;BME280;46321;48.398;11.754;2023-04-01T03:35:56;95330.97;;;6.69;73.00
60479;BME280;46321;48.398;11.754;2023-04-01T03:38:21;95336.56;;;6.66;73.14
60479;BME280;46321;48.398;11.754;2023-04-01T03:40:46;95344.19;;;6.60;72.98
60479;BME280;46321;48.398;11.754;2023-04-01T03:43:12;95338.56;;;6.63;72.77
60479;BME280;46321;48.398;11.754;2023-04-01T03:46:03;95348.19;;;6.56;72.88
60479;BME280;46321;48.398;11.754;2023-04-01T03:48:30;95348.00;;;6.58;72.89
60479;BME280;46321;48.398;11.754;2023-04-01T03:50:55;95344.91;;;6.54;72.95
60479;BME280;46321;48.398;11.754;2023-04-01T03:53:20;95350.63;;;6.58;72.72
60479;BME280;46321;48.398;11.754;2023-04-01T03:55:46;95354.50;;;6.47;73.11
60479;BME280;46321;48.398;11.754;2023-04-01T03:58:12;95342.72;;;6.43;73.42
60479;BME280;46321;48.398;11.754;2023-04-01T04:00:37;95360.09;;;6.44;72.88
60479;BME280;46321;48.398;11.754;2023-04-01T04:03:03;95348.75;;;6.43;73.22
60479;BME280;46321;48.398;11.754;2023-04-01T04:05:28;95355.56;;;6.37;72.57
60479;BME280;46321;48.398;11.754;2023-04-01T04:07:53;95360.81;;;6.37;73.15
60479;BME280;46321;48.398;11.754;2023-04-01T04:10:19;95368.41;;;6.32;73.47
60479;BME280;46321;48.398;11.754;2023-04-01T04:12:45;95367.78;;;6.45;73.32
60479;BME280;46321;48.398;11.754;2023-04-01T04:15:11;95367.00;;;6.45;73.07
60479;BME280;46321;48.398;11.754;2023-04-01T04:17:36;95364.19;;;6.46;72.99
60479;BME280;46321;48.398;11.754;2023-04-01T04:20:02;95361.03;;;6.51;73.03
60479;BME280;46321;48.398;11.754;2023-04-01T04:22:27;95371.88;;;6.48;72.76
60479;BME280;46321;48.398;11.754;2023-04-01T04:24:53;95377.22;;;6.39;73.39
60479;BME280;46321;48.398;11.754;2023-04-01T04:27:18;95374.41;;;6.41;73.34
60479;BME280;46321;48.398;11.754;2023-04-01T04:29:43;95386.91;;;6.39;73.03
60479;BME280;46321;48.398;11.754;2023-04-01T04:32:09;95364.41;;;6.36;73.33
60479;BME280;46321;48.398;11.754;2023-04-01T04:34:34;95365.13;;;6.30;73.42
60479;BME280;46321;48.398;11.754;2023-04-01T04:36:59;95369.47;;;6.23;73.87
60479;BME280;46321;48.398;11.754;2023-04-01T04:39:25;95371.44;;;6.21;73.70
60479;BME280;46321;48.398;11.754;2023-04-01T04:41:50;95366.66;;;6.24;73.66
60479;BME280;46321;48.398;11.754;2023-04-01T04:44:15;95369.75;;;6.28;73.64
60479;BME280;46321;48.398;11.754;2023-04-01T04:46:41;95376.69;;;6.21;74.19
60479;BME280;46321;48.398;11.754;2023-04-01T04:49:06;95366.28;;;6.27;74.09
60479;BME280;46321;48.398;11.754;2023-04-01T04:51:32;95372.84;;;6.32;74.27
60479;BME280;46321;48.398;11.754;2023-04-01T04:54:02;95386.00;;;6.32;74.16
60479;BME280;46321;48.398;11.754;2023-04-01T04:56:27;95376.91;;;6.34;74.44
60479;BME280;46321;48.398;11.754;2023-04-01T04:58:53;95381.19;;;6.35;74.30
60479;BME280;46321;48.398;11.754;2023-04-01T05:01:18;95384.34;;;6.30;74.70
60479;BME280;46321;48.398;11.754;2023-04-01T05:03:45;95384.88;;;6.26;74.46
60479;BME280;46321;48.398;11.754;2023-04-01T05:06:12;95383.00;;;6.35;74.62
60479;BME280;46321;48.398;11.754;2023-04-01T05:08:39;95380.84;;;6.38;74.46
60479;BME280;46321;48.398;11.754;2023-04-01T05:11:07;95397.53;;;6.46;74.55
60479;BME280;46321;48.398;11.754;2023-04-01T05:13:35;95398.78;;;6.35;74.98
60479;BME280;46321;48.398;11.754;2023-04-01T05:16:01;95388.75;;;6.38;74.78
60479;BME280;46321;48.398;11.754;2023-04-01T05:18:26;95380.84;;;6.38;74.94
60479;BME280;46321;48.398;11.754;2023-04-01T05:20:53;95388.66;;;6.47;74.87
60479;BME280;46321;48.398;11.754;2023-04-01T05:23:19;95393.41;;;6.51;75.06
60479;BME280;46321;48.398;11.754;2023-04-01T05:25:47;95386.59;;;6.57;74.91
60479;BME280;46321;48.398;11.754;2023-04-01T05:28:13;95389.88;;;6.59;74.89
60479;BME280;46321;48.398;11.754;2023-04-01T05:30:40;95382.00;;;6.59;75.02
60479;BME280;46321;48.398;11.754;2023-04-01T05:33:06;95380.81;;;6.62;74.70
60479;BME280;46321;48.398;11.754;2023-04-01T05:35:32;95385.75;;;6.80;74.39
60479;BME280;46321;48.398;11.754;2023-04-01T05:37:57;95381.78;;;7.15;73.12
60479;BME280;46321;48.398;11.754;2023-04-01T05:40:22;95392.50;;;7.28;72.79
60479;BME280;46321;48.398;11.754;2023-04-01T05:42:47;95383.28;;;7.32;72.17
60479;BME280;46321;48.398;11.754;2023-04-01T05:45:13;95380.44;;;7.34;71.90
60479;BME280;46321;48.398;11.754;2023-04-01T05:47:40;95395.34;;;7.12;72.74
60479;BME280;46321;48.398;11.754;2023-04-01T05:50:08;95380.53;;;7.10;73.07
60479;BME280;46321;48.398;11.754;2023-04-01T05:52:33;95395.97;;;7.14;72.45
60479;BME280;46321;48.398;11.754;2023-04-01T05:54:58;95391.16;;;7.17;72.56
60479;BME280;46321;48.398;11.754;2023-04-01T05:57:25;95391.16;;;7.17;72.35
60479;BME280;46321;48.398;11.754;2023-04-01T05:59:50;95382.91;;;7.20;71.91
60479;BME280;46321;48.398;11.754;2023-04-01T06:02:17;95385.25;;;7.30;71.95
60479;BME280;46321;48.398;11.754;2023-04-01T06:04:42;95398.88;;;7.49;71.67
60479;BME280;46321;48.398;11.754;2023-04-01T06:07:16;95387.81;;;7.91;70.24
60479;BME280;46321;48.398;11.754;2023-04-01T06:09:43;95383.09;;;8.23;68.43
60479;BME280;46321;48.398;11.754;2023-04-01T06:15:41;95386.47;;;7.95;68.44
60479;BME280;46321;48.398;11.754;2023-04-01T06:18:16;95384.69;;;8.02;68.76
60479;BME280;46321;48.398;11.754;2023-04-01T06:21:07;95384.16;;;8.29;67.24
60479;BME280;46321;48.398;11.754;2023-04-01T06:26:24;95386.63;;;8.31;67.31
60479;BME280;46321;48.398;11.754;2023-04-01T06:37:41;95392.69;;;8.31;67.25
60479;BME280;46321;48.398;11.754;2023-04-01T06:41:16;95388.63;;;8.29;66.38
60479;BME280;46321;48.398;11.754;2023-04-01T06:43:41;95393.69;;;8.30;66.54
60479;BME280;46321;48.398;11.754;2023-04-01T06:46:24;95398.53;;;8.48;66.10
60479;BME280;46321;48.398;11.754;2023-04-01T06:54:35;95389.81;;;8.99;64.35
60479;BME280;46321;48.398;11.754;2023-04-01T06:57:28;95391.78;;;9.19;63.82
60479;BME280;46321;48.398;11.754;2023-04-01T06:59:57;95389.38;;;9.24;63.45
60479;BME280;46321;48.398;11.754;2023-04-01T07:02:44;95392.88;;;9.31;62.92
60479;BME280;46321;48.398;11.754;2023-04-01T07:05:11;95392.34;;;9.43;63.24
60479;BME280;46321;48.398;11.754;2023-04-01T07:07:43;95395.81;;;9.50;62.25
60479;BME280;46321;48.398;11.754;2023-04-01T07:10:17;95404.81;;;9.56;61.63
60479;BME280;46321;48.398;11.754;2023-04-01T07:12:49;95371.00;;;9.44;61.16
60479;BME280;46321;48.398;11.754;2023-04-01T07:15:18;95394.19;;;9.49;61.10
60479;BME280;46321;48.398;11.754;2023-04-01T07:17:46;95388.56;;;9.66;60.10
60479;BME280;46321;48.398;11.754;2023-04-01T07:20:30;95397.41;;;9.87;59.14
60479;BME280;46321;48.398;11.754;2023-04-01T07:22:59;95391.56;;;10.05;59.58
60479;BME280;46321;48.398;11.754;2023-04-01T07:25:35;95393.25;;;10.26;58.42
60479;BME280;46321;48.398;11.754;2023-04-01T07:28:10;95394.53;;;10.51;58.67
60479;BME280;46321;48.398;11.754;2023-04-01T07:31:04;95377.66;;;10.52;57.59
60479;BME280;46321;48.398;11.754;2023-04-01T07:33:41;95380.31;;;10.52;57.64
60479;BME280;46321;48.398;11.754;2023-04-01T07:39:30;95391.66;;;10.46;58.24
60479;BME280;46321;48.398;11.754;2023-04-01T07:44:40;95389.03;;;11.00;56.28
60479;BME280;46321;48.398;11.754;2023-04-01T07:47:24;95405.16;;;11.05;55.69
60479;BME280;46321;48.398;11.754;2023-04-01T07:50:09;95393.94;;;11.24;54.90
60479;BME280;46321;48.398;11.754;2023-04-01T07:55:48;95395.75;;;10.62;55.71
60479;BME280;46321;48.398;11.754;2023-04-01T08:03:50;95403.44;;;10.36;55.85
60479;BME280;46321;48.398;11.754;2023-04-01T08:06:34;95402.41;;;10.30;56.41
60479;BME280;46321;48.398;11.754;2023-04-01T08:23:24;95403.41;;;10.16;57.56
60479;BME280;46321;48.398;11.754;2023-04-01T08:25:56;95399.34;;;10.20;57.40
60479;BME280;46321;48.398;11.754;2023-04-01T08:28:32;95399.75;;;10.30;57.42
60479;BME280;46321;48.398;11.754;2023-04-01T08:31:04;95392.44;;;10.19;56.45
60479;BME280;46321;48.398;11.754;2023-04-01T08:33:32;95387.53;;;10.16;56.62
60479;BME280;46321;48.398;11.754;2023-04-01T08:38:36;95401.78;;;10.28;56.38
60479;BME280;46321;48.398;11.754;2023-04-01T08:41:08;95389.25;;;10.71;56.18
60479;BME280;46321;48.398;11.754;2023-04-01T08:46:23;95375.41;;;10.83;55.02
60479;BME280;46321;48.398;11.754;2023-04-01T08:49:06;95383.16;;;10.77;54.96
60479;BME280;46321;48.398;11.754;2023-04-01T09:00:53;95375.97;;;10.37;55.17
60479;BME280;46321;48.398;11.754;2023-04-01T09:06:25;95386.75;;;10.36;55.67
60479;BME280;46321;48.398;11.754;2023-04-01T09:11:47;95378.88;;;10.76;54.57
60479;BME280;46321;48.398;11.754;2023-04-01T09:14:34;95383.44;;;11.56;53.37
60479;BME280;46321;48.398;11.754;2023-04-01T09:20:33;95365.84;;;13.05;49.90
60479;BME280;46321;48.398;11.754;2023-04-01T09:25:36;95366.72;;;12.99;49.25
60479;BME280;46321;48.398;11.754;2023-04-01T09:36:38;95354.06;;;11.71;51.93
60479;BME280;46321;48.398;11.754;2023-04-01T09:39:17;95364.25;;;11.67;52.08
60479;BME280;46321;48.398;11.754;2023-04-01T09:45:01;95365.75;;;11.43;52.15
60479;BME280;46321;48.398;11.754;2023-04-01T09:50:29;95356.00;;;11.37;52.40
60479;BME280;46321;48.398;11.754;2023-04-01T09:55:56;95356.63;;;11.18;53.69
60479;BME280;46321;48.398;11.754;2023-04-01T09:58:39;95338.63;;;11.48;53.75
60479;BME280;46321;48.398;11.754;2023-04-01T10:03:54;95347.81;;;11.45;52.87
60479;BME280;46321;48.398;11.754;2023-04-01T10:06:57;95327.25;;;11.33;53.27
60479;BME280;46321;48.398;11.754;2023-04-01T10:17:51;95316.06;;;11.84;53.06
60479;BME280;46321;48.398;11.754;2023-04-01T10:26:17;95326.94;;;12.08;51.99
60479;BME280;46321;48.398;11.754;2023-04-01T10:36:40;95347.94;;;11.71;52.77
60479;BME280;46321;48.398;11.754;2023-04-01T10:41:59;95327.09;;;11.21;54.13
60479;BME280;46321;48.398;11.754;2023-04-01T10:53:37;95348.75;;;10.77;55.49
60479;BME280;46321;48.398;11.754;2023-04-01T10:56:51;95349.16;;;10.88;56.76
60479;BME280;46321;48.398;11.754;2023-04-01T11:10:15;95341.59;;;10.44;58.84
60479;BME280;46321;48.398;11.754;2023-04-01T11:13:00;95325.09;;;10.35;58.69
60479;BME280;46321;48.398;11.754;2023-04-01T11:18:41;95346.66;;;10.12;59.97
60479;BME280;46321;48.398;11.754;2023-04-01T11:21:34;95345.81;;;10.04;61.29
60479;BME280;46321;48.398;11.754;2023-04-01T11:27:11;95368.63;;;10.19;63.35
60479;BME280;46321;48.398;11.754;2023-04-01T11:30:33;95360.31;;;10.36;63.49
60479;BME280;46321;48.398;11.754;2023-04-01T11:38:04;95362.56;;;10.39;63.84
60479;BME280;46321;48.398;11.754;2023-04-01T11:43:14;95378.19;;;10.27;64.14
60479;BME280;46321;48.398;11.754;2023-04-01T11:45:59;95381.81;;;9.99;63.94
60479;BME280;46321;48.398;11.754;2023-04-01T11:48:36;95394.34;;;9.83;64.01
60479;BME280;46321;48.398;11.754;2023-04-01T11:56:43;95385.25;;;9.92;66.09
60479;BME280;46321;48.398;11.754;2023-04-01T12:02:24;95393.50;;;9.76;68.53
60479;BME280;46321;48.398;11.754;2023-04-01T12:10:33;95393.53;;;9.04;69.92
60479;BME280;46321;48.398;11.754;2023-04-01T12:13:25;95410.00;;;9.07;69.64
60479;BME280;46321;48.398;11.754;2023-04-01T12:16:20;95396.13;;;8.98;70.41
60479;BME280;46321;48.398;11.754;2023-04-01T12:18:55;95414.09;;;8.87;71.38
60479;BME280;46321;48.398;11.754;2023-04-01T12:21:36;95400.28;;;8.85;71.10
60479;BME280;46321;48.398;11.754;2023-04-01T12:27:02;95406.31;;;8.79;72.49
60479;BME280;46321;48.398;11.754;2023-04-01T12:30:00;95396.78;;;8.78;73.58
60479;BME280;46321;48.398;11.754;2023-04-01T12:35:23;95408.31;;;8.99;72.04
60479;BME280;46321;48.398;11.754;2023-04-01T12:38:03;95391.84;;;8.97;70.87
60479;BME280;46321;48.398;11.754;2023-04-01T12:40:46;95405.06;;;8.75;70.84
60479;BME280;46321;48.398;11.754;2023-04-01T12:46:18;95400.38;;;8.70;70.79
60479;BME280;46321;48.398;11.754;2023-04-01T12:48:59;95404.97;;;8.61;71.32
60479;BME280;46321;48.398;11.754;2023-04-01T12:54:57;95402.03;;;8.56;73.24
60479;BME280;46321;48.398;11.754;2023-04-01T13:00:25;95402.69;;;8.58;74.12
60479;BME280;46321;48.398;11.754;2023-04-01T13:08:49;95399.72;;;8.24;73.93
60479;BME280;46321;48.398;11.754;2023-04-01T13:14:22;95398.47;;;8.20;74.63
60479;BME280;46321;48.398;11.754;2023-04-01T13:20:11;95404.94;;;8.17;74.62
60479;BME280;46321;48.398;11.754;2023-04-01T13:25:47;95400.56;;;8.09;74.52
60479;BME280;46321;48.398;11.754;2023-04-01T13:28:23;95409.53;;;8.52;73.87
60479;BME280;46321;48.398;11.754;2023-04-01T13:33:47;95403.81;;;8.48;73.67
60479;BME280;46321;48.398;11.754;2023-04-01T13:36:54;95403.97;;;8.47;73.36
60479;BME280;46321;48.398;11.754;2023-04-01T13:42:40;95402.44;;;8.75;73.90
60479;BME280;46321;48.398;11.754;2023-04-01T13:45:16;95405.91;;;8.75;73.05
60479;BME280;46321;48.398;11.754;2023-04-01T13:51:00;95412.06;;;8.82;72.47
60479;BME280;46321;48.398;11.754;2023-04-01T13:53:39;95418.28;;;8.75;72.06
60479;BME280;46321;48.398;11.754;2023-04-01T13:56:33;95408.69;;;8.67;72.51
60479;BME280;46321;48.398;11.754;2023-04-01T14:00:10;95417.50;;;8.81;72.22
60479;BME280;46321;48.398;11.754;2023-04-01T14:19:39;95408.72;;;9.31;72.48
60479;BME280;46321;48.398;11.754;2023-04-01T14:22:23;95416.25;;;9.34;72.38
60479;BME280;46321;48.398;11.754;2023-04-01T14:39:26;95407.81;;;9.17;74.04
60479;BME280;46321;48.398;11.754;2023-04-01T14:48:23;95424.50;;;9.18;73.91
60479;BME280;46321;48.398;11.754;2023-04-01T14:50:52;95411.66;;;9.14;73.85
60479;BME280;46321;48.398;11.754;2023-04-01T14:56:00;95418.97;;;9.48;71.92
60479;BME280;46321;48.398;11.754;2023-04-01T14:58:46;95419.41;;;9.52;72.12
60479;BME280;46321;48.398;11.754;2023-04-01T15:07:28;95426.69;;;9.43;71.55
60479;BME280;46321;48.398;11.754;2023-04-01T15:10:17;95431.56;;;9.46;71.29
60479;BME280;46321;48.398;11.754;2023-04-01T15:21:43;95422.31;;;9.28;70.57
60479;BME280;46321;48.398;11.754;2023-04-01T15:24:24;95436.91;;;9.24;70.38
60479;BME280;46321;48.398;11.754;2023-04-01T15:27:06;95430.13;;;9.14;70.11
60479;BME280;46321;48.398;11.754;2023-04-01T15:37:54;95431.25;;;9.62;69.00
60479;BME280;46321;48.398;11.754;2023-04-01T15:45:25;95436.31;;;9.57;68.39
60479;BME280;46321;48.398;11.754;2023-04-01T15:48:17;95451.19;;;9.65;68.61
60479;BME280;46321;48.398;11.754;2023-04-01T15:51:19;95442.66;;;9.63;69.28
60479;BME280;46321;48.398;11.754;2023-04-01T15:54:15;95445.66;;;9.60;69.20
60479;BME280;46321;48.398;11.754;2023-04-01T15:57:10;95446.22;;;9.48;69.79
60479;BME280;46321;48.398;11.754;2023-04-01T15:59:54;95445.00;;;9.51;69.33
60479;BME280;46321;48.398;11.754;2023-04-01T16:11:06;95449.16;;;9.32;70.02
60479;BME280;46321;48.398;11.754;2023-04-01T16:13:48;95439.34;;;9.25;70.17
60479;BME280;46321;48.398;11.754;2023-04-01T16:16:52;95455.44;;;9.31;69.93
60479;BME280;46321;48.398;11.754;2023-04-01T16:19:32;95444.25;;;9.28;70.29
60479;BME280;46321;48.398;11.754;2023-04-01T16:22:14;95450.63;;;9.41;69.61
60479;BME280;46321;48.398;11.754;2023-04-01T16:24:51;95449.75;;;9.27;69.66
60479;BME280;46321;48.398;11.754;2023-04-01T16:27:27;95440.19;;;9.26;70.33
60479;BME280;46321;48.398;11.754;2023-04-01T16:30:37;95457.72;;;9.34;70.12
60479;BME280;46321;48.398;11.754;2023-04-01T16:33:04;95445.84;;;9.23;70.52
60479;BME280;46321;48.398;11.754;2023-04-01T16:35:52;95458.91;;;9.02;70.31
60479;BME280;46321;48.398;11.754;2023-04-01T16:38:50;95459.22;;;8.92;70.84
60479;BME280;46321;48.398;11.754;2023-04-01T16:41:34;95457.22;;;8.73;71.10
60479;BME280;46321;48.398;11.754;2023-04-01T16:44:14;95451.16;;;9.01;69.45
60479;BME280;46321;48.398;11.754;2023-04-01T16:46:46;95447.84;;;8.92;69.08
60479;BME280;46321;48.398;11.754;2023-04-01T16:54:40;95451.38;;;8.77;69.81
60479;BME280;46321;48.398;11.754;2023-04-01T17:02:26;95458.72;;;8.82;68.15
60479;BME280;46321;48.398;11.754;2023-04-01T17:08:17;95470.25;;;9.03;67.92
60479;BME280;46321;48.398;11.754;2023-04-01T17:21:57;95472.78;;;9.11;66.47
60479;BME280;46321;48.398;11.754;2023-04-01T17:27:51;95482.31;;;9.12;66.28
60479;BME280;46321;48.398;11.754;2023-04-01T17:30:28;95489.34;;;9.05;66.30
60479;BME280;46321;48.398;11.754;2023-04-01T17:33:40;95480.03;;;9.02;65.83
60479;BME280;46321;48.398;11.754;2023-04-01T17:36:25;95484.47;;;9.02;66.12
60479;BME280;46321;48.398;11.754;2023-04-01T17:41:51;95492.53;;;8.93;65.73
60479;BME280;46321;48.398;11.754;2023-04-01T17:50:30;95501.75;;;9.04;66.36
60479;BME280;46321;48.398;11.754;2023-04-01T17:56:07;95502.34;;;9.00;66.29
60479;BME280;46321;48.398;11.754;2023-04-01T17:58:59;95512.56;;;9.10;65.46
60479;BME280;46321;48.398;11.754;2023-04-01T18:01:46;95513.88;;;8.99;65.87
60479;BME280;46321;48.398;11.754;2023-04-01T18:09:59;95519.03;;;8.63;67.01
60479;BME280;46321;48.398;11.754;2023-04-01T18:12:58;95528.50;;;8.57;67.31
60479;BME280;46321;48.398;11.754;2023-04-01T18:15:59;95526.59;;;8.88;66.59
60479;BME280;46321;48.398;11.754;2023-04-01T18:21:31;95530.97;;;9.03;66.07
60479;BME280;46321;48.398;11.754;2023-04-01T18:24:11;95538.09;;;9.02;66.29
60479;BME280;46321;48.398;11.754;2023-04-01T18:26:42;95540.09;;;9.00;66.18
60479;BME280;46321;48.398;11.754;2023-04-01T18:29:30;95540.75;;;9.02;65.90
60479;BME280;46321;48.398;11.754;2023-04-01T18:35:00;95548.72;;;9.09;65.83
60479;BME280;46321;48.398;11.754;2023-04-01T18:37:53;95560.41;;;9.00;65.79
60479;BME280;46321;48.398;11.754;2023-04-01T18:40:35;95556.81;;;9.08;65.66
60479;BME280;46321;48.398;11.754;2023-04-01T18:46:09;95562.53;;;9.11;65.46
60479;BME280;46321;48.398;11.754;2023-04-01T18:53:43;95575.84;;;9.03;65.14
60479;BME280;46321;48.398;11.754;2023-04-01T18:56:36;95579.94;;;9.05;65.10
60479;BME280;46321;48.398;11.754;2023-04-01T18:59:10;95591.13;;;9.08;65.35
60479;BME280;46321;48.398;11.754;2023-04-01T19:01:47;95590.19;;;9.15;65.08
60479;BME280;46321;48.398;11.754;2023-04-01T19:04:36;95595.47;;;9.15;64.95
60479;BME280;46321;48.398;11.754;2023-04-01T19:09:51;95581.19;;;8.88;66.17
60479;BME280;46321;48.398;11.754;2023-04-01T19:17:51;95595.69;;;9.14;65.53
60479;BME280;46321;48.398;11.754;2023-04-01T19:20:43;95591.81;;;9.16;65.90
60479;BME280;46321;48.398;11.754;2023-04-01T19:26:04;95599.75;;;9.16;65.74
60479;BME280;46321;48.398;11.754;2023-04-01T19:34:44;95607.63;;;8.73;67.28
60479;BME280;46321;48.398;11.754;2023-04-01T19:37:36;95608.81;;;8.70;67.32
60479;BME280;46321;48.398;11.754;2023-04-01T19:42:58;95612.94;;;8.57;68.10
60479;BME280;46321;48.398;11.754;2023-04-01T19:50:53;95623.00;;;9.06;67.32
60479;BME280;46321;48.398;11.754;2023-04-01T19:53:28;95628.81;;;8.79;68.10
60479;BME280;46321;48.398;11.754;2023-04-01T19:56:13;95626.75;;;8.59;69.49
60479;BME280;46321;48.398;11.754;2023-04-01T20:01:57;95638.56;;;8.48;70.56